Plumas, Canada
Current Conditions -  °F | °C
As of 7:04 PM on Monday 24 Nov 2014 (Local Time) from CYBR Reporting Station
Light Snow Light Snow  
Wind Chill:   Ceiling: 4500
Heat Index: 14°   Visibility: 8mi
Dew Point:   Wind: 7mph
Humidity: 79%   Direction: 290°WNW
Pressure: 29.93"   Gusts: NA
Location:  50.38°N, 99.08°W
Report Text: CYBR 250104Z 29006KT 8SM -SN BKN045 OVC060 M10/M13 A2993 RMK SC6SC2 SLP175
Loading
Personal Weather Stations






























Interactive Weather Map New forecast layout! Learn more

10-Day Weather Forecast

Advertisements
Track Severe Weather on mobile